sensor_id;sensor_type;location;lat;lon;timestamp;P1;durP1;ratioP1;P2;durP2;ratioP2
4409;SDS011;2218;51.408;7.208;2023-04-24T00:01:10;0.70;;;0.50;;
4409;SDS011;2218;51.408;7.208;2023-04-24T00:03:38;0.70;;;0.40;;
4409;SDS011;2218;51.408;7.208;2023-04-24T00:06:06;0.60;;;0.40;;
4409;SDS011;2218;51.408;7.208;2023-04-24T00:08:33;0.60;;;0.40;;
4409;SDS011;2218;51.408;7.208;2023-04-24T00:11:01;0.60;;;0.40;;
4409;SDS011;2218;51.408;7.208;2023-04-24T00:13:29;0.60;;;0.40;;
4409;SDS011;2218;51.408;7.208;2023-04-24T00:15:56;0.60;;;0.30;;
4409;SDS011;2218;51.408;7.208;2023-04-24T00:18:23;0.70;;;0.40;;
4409;SDS011;2218;51.408;7.208;2023-04-24T00:20:50;0.70;;;0.40;;
4409;SDS011;2218;51.408;7.208;2023-04-24T00:23:17;0.60;;;0.40;;
4409;SDS011;2218;51.408;7.208;2023-04-24T00:25:44;0.60;;;0.40;;
4409;SDS011;2218;51.408;7.208;2023-04-24T00:28:11;0.60;;;0.40;;
4409;SDS011;2218;51.408;7.208;2023-04-24T00:30:39;0.60;;;0.40;;
4409;SDS011;2218;51.408;7.208;2023-04-24T00:33:06;0.60;;;0.40;;
4409;SDS011;2218;51.408;7.208;2023-04-24T00:35:33;0.60;;;0.40;;
4409;SDS011;2218;51.408;7.208;2023-04-24T00:38:00;0.60;;;0.40;;
4409;SDS011;2218;51.408;7.208;2023-04-24T00:40:27;0.60;;;0.40;;
4409;SDS011;2218;51.408;7.208;2023-04-24T00:42:55;0.63;;;0.40;;
4409;SDS011;2218;51.408;7.208;2023-04-24T00:45:22;0.60;;;0.40;;
4409;SDS011;2218;51.408;7.208;2023-04-24T00:47:50;0.60;;;0.40;;
4409;SDS011;2218;51.408;7.208;2023-04-24T00:50:20;0.60;;;0.40;;
4409;SDS011;2218;51.408;7.208;2023-04-24T00:52:47;0.60;;;0.40;;
4409;SDS011;2218;51.408;7.208;2023-04-24T00:55:15;0.60;;;0.40;;
4409;SDS011;2218;51.408;7.208;2023-04-24T00:57:43;0.60;;;0.40;;
4409;SDS011;2218;51.408;7.208;2023-04-24T01:00:11;0.60;;;0.40;;
4409;SDS011;2218;51.408;7.208;2023-04-24T01:02:41;0.60;;;0.40;;
4409;SDS011;2218;51.408;7.208;2023-04-24T01:05:12;0.60;;;0.40;;
4409;SDS011;2218;51.408;7.208;2023-04-24T01:07:41;0.60;;;0.40;;
4409;SDS011;2218;51.408;7.208;2023-04-24T01:10:11;0.60;;;0.40;;
4409;SDS011;2218;51.408;7.208;2023-04-24T01:12:39;0.60;;;0.40;;
4409;SDS011;2218;51.408;7.208;2023-04-24T01:15:07;0.60;;;0.40;;
4409;SDS011;2218;51.408;7.208;2023-04-24T01:17:36;0.60;;;0.40;;
4409;SDS011;2218;51.408;7.208;2023-04-24T01:20:03;0.60;;;0.40;;
4409;SDS011;2218;51.408;7.208;2023-04-24T01:22:33;0.60;;;0.40;;
4409;SDS011;2218;51.408;7.208;2023-04-24T01:25:01;0.60;;;0.40;;
4409;SDS011;2218;51.408;7.208;2023-04-24T01:27:30;0.60;;;0.40;;
4409;SDS011;2218;51.408;7.208;2023-04-24T01:29:57;0.60;;;0.40;;
4409;SDS011;2218;51.408;7.208;2023-04-24T01:32:24;0.60;;;0.40;;
4409;SDS011;2218;51.408;7.208;2023-04-24T01:34:52;0.60;;;0.40;;
4409;SDS011;2218;51.408;7.208;2023-04-24T01:37:20;0.60;;;0.40;;
4409;SDS011;2218;51.408;7.208;2023-04-24T01:39:49;0.70;;;0.50;;
4409;SDS011;2218;51.408;7.208;2023-04-24T01:42:17;0.60;;;0.40;;
4409;SDS011;2218;51.408;7.208;2023-04-24T01:44:45;0.60;;;0.37;;
4409;SDS011;2218;51.408;7.208;2023-04-24T01:47:13;0.60;;;0.40;;
4409;SDS011;2218;51.408;7.208;2023-04-24T01:49:40;0.60;;;0.40;;
4409;SDS011;2218;51.408;7.208;2023-04-24T01:52:07;0.60;;;0.40;;
4409;SDS011;2218;51.408;7.208;2023-04-24T01:54:34;0.60;;;0.40;;
4409;SDS011;2218;51.408;7.208;2023-04-24T01:57:02;0.70;;;0.40;;
4409;SDS011;2218;51.408;7.208;2023-04-24T01:59:31;0.60;;;0.43;;
4409;SDS011;2218;51.408;7.208;2023-04-24T02:02:01;0.60;;;0.50;;
4409;SDS011;2218;51.408;7.208;2023-04-24T02:04:28;0.60;;;0.40;;
4409;SDS011;2218;51.408;7.208;2023-04-24T02:06:56;0.60;;;0.40;;
4409;SDS011;2218;51.408;7.208;2023-04-24T02:09:23;0.60;;;0.40;;
4409;SDS011;2218;51.408;7.208;2023-04-24T02:11:51;0.60;;;0.40;;
4409;SDS011;2218;51.408;7.208;2023-04-24T02:14:19;0.60;;;0.40;;
4409;SDS011;2218;51.408;7.208;2023-04-24T02:16:46;0.70;;;0.50;;
4409;SDS011;2218;51.408;7.208;2023-04-24T02:19:13;0.70;;;0.40;;
4409;SDS011;2218;51.408;7.208;2023-04-24T02:21:40;0.60;;;0.40;;
4409;SDS011;2218;51.408;7.208;2023-04-24T02:24:07;0.60;;;0.40;;
4409;SDS011;2218;51.408;7.208;2023-04-24T02:26:34;0.60;;;0.40;;
4409;SDS011;2218;51.408;7.208;2023-04-24T02:29:01;0.60;;;0.40;;
4409;SDS011;2218;51.408;7.208;2023-04-24T02:31:29;0.60;;;0.40;;
4409;SDS011;2218;51.408;7.208;2023-04-24T02:33:56;0.60;;;0.40;;
4409;SDS011;2218;51.408;7.208;2023-04-24T02:36:23;0.60;;;0.40;;
4409;SDS011;2218;51.408;7.208;2023-04-24T02:38:50;0.60;;;0.40;;
4409;SDS011;2218;51.408;7.208;2023-04-24T02:41:17;0.70;;;0.47;;
4409;SDS011;2218;51.408;7.208;2023-04-24T02:43:44;0.60;;;0.40;;
4409;SDS011;2218;51.408;7.208;2023-04-24T02:46:11;0.70;;;0.50;;
4409;SDS011;2218;51.408;7.208;2023-04-24T02:48:39;0.70;;;0.50;;
4409;SDS011;2218;51.408;7.208;2023-04-24T02:51:06;0.60;;;0.43;;
4409;SDS011;2218;51.408;7.208;2023-04-24T02:53:33;0.60;;;0.40;;
4409;SDS011;2218;51.408;7.208;2023-04-24T02:56:01;0.60;;;0.40;;
4409;SDS011;2218;51.408;7.208;2023-04-24T02:58:28;0.70;;;0.40;;
4409;SDS011;2218;51.408;7.208;2023-04-24T03:00:55;0.60;;;0.40;;
4409;SDS011;2218;51.408;7.208;2023-04-24T03:03:22;0.60;;;0.50;;
4409;SDS011;2218;51.408;7.208;2023-04-24T03:05:51;0.60;;;0.43;;
4409;SDS011;2218;51.408;7.208;2023-04-24T03:08:18;0.60;;;0.40;;
4409;SDS011;2218;51.408;7.208;2023-04-24T03:10:45;0.70;;;0.60;;
4409;SDS011;2218;51.408;7.208;2023-04-24T03:13:13;0.70;;;0.50;;
4409;SDS011;2218;51.408;7.208;2023-04-24T03:15:42;0.60;;;0.47;;
4409;SDS011;2218;51.408;7.208;2023-04-24T03:18:10;0.60;;;0.40;;
4409;SDS011;2218;51.408;7.208;2023-04-24T03:20:37;0.60;;;0.40;;
4409;SDS011;2218;51.408;7.208;2023-04-24T03:23:05;0.60;;;0.50;;
4409;SDS011;2218;51.408;7.208;2023-04-24T03:25:32;0.70;;;0.50;;
4409;SDS011;2218;51.408;7.208;2023-04-24T03:28:00;0.60;;;0.43;;
4409;SDS011;2218;51.408;7.208;2023-04-24T03:30:34;0.60;;;0.50;;
4409;SDS011;2218;51.408;7.208;2023-04-24T03:33:01;0.70;;;0.50;;
4409;SDS011;2218;51.408;7.208;2023-04-24T03:35:32;0.60;;;0.50;;
4409;SDS011;2218;51.408;7.208;2023-04-24T03:38:02;0.60;;;0.50;;
4409;SDS011;2218;51.408;7.208;2023-04-24T03:40:50;0.63;;;0.50;;
4409;SDS011;2218;51.408;7.208;2023-04-24T03:43:40;0.70;;;0.50;;
4409;SDS011;2218;51.408;7.208;2023-04-24T03:46:07;0.70;;;0.50;;
4409;SDS011;2218;51.408;7.208;2023-04-24T03:48:40;0.70;;;0.60;;
4409;SDS011;2218;51.408;7.208;2023-04-24T03:51:08;0.70;;;0.50;;
4409;SDS011;2218;51.408;7.208;2023-04-24T03:53:37;0.60;;;0.40;;
4409;SDS011;2218;51.408;7.208;2023-04-24T03:56:06;0.70;;;0.50;;
4409;SDS011;2218;51.408;7.208;2023-04-24T03:58:34;0.60;;;0.50;;
4409;SDS011;2218;51.408;7.208;2023-04-24T04:01:01;0.70;;;0.50;;
4409;SDS011;2218;51.408;7.208;2023-04-24T04:03:45;0.70;;;0.50;;
4409;SDS011;2218;51.408;7.208;2023-04-24T04:06:15;0.70;;;0.50;;
4409;SDS011;2218;51.408;7.208;2023-04-24T04:08:43;0.60;;;0.50;;
4409;SDS011;2218;51.408;7.208;2023-04-24T04:11:11;0.70;;;0.50;;
4409;SDS011;2218;51.408;7.208;2023-04-24T04:13:38;0.70;;;0.50;;
4409;SDS011;2218;51.408;7.208;2023-04-24T04:16:06;0.70;;;0.60;;
4409;SDS011;2218;51.408;7.208;2023-04-24T04:18:34;0.67;;;0.57;;
4409;SDS011;2218;51.408;7.208;2023-04-24T04:21:04;0.60;;;0.50;;
4409;SDS011;2218;51.408;7.208;2023-04-24T04:23:31;0.70;;;0.50;;
4409;SDS011;2218;51.408;7.208;2023-04-24T04:26:26;0.70;;;0.60;;
4409;SDS011;2218;51.408;7.208;2023-04-24T04:29:04;0.60;;;0.40;;
4409;SDS011;2218;51.408;7.208;2023-04-24T04:31:33;0.60;;;0.50;;
4409;SDS011;2218;51.408;7.208;2023-04-24T04:34:05;0.60;;;0.50;;
4409;SDS011;2218;51.408;7.208;2023-04-24T04:36:33;0.70;;;0.60;;
4409;SDS011;2218;51.408;7.208;2023-04-24T04:39:08;0.70;;;0.60;;
4409;SDS011;2218;51.408;7.208;2023-04-24T04:41:45;0.73;;;0.60;;
4409;SDS011;2218;51.408;7.208;2023-04-24T04:44:13;0.70;;;0.60;;
4409;SDS011;2218;51.408;7.208;2023-04-24T04:46:41;0.67;;;0.50;;
4409;SDS011;2218;51.408;7.208;2023-04-24T04:49:19;0.60;;;0.50;;
4409;SDS011;2218;51.408;7.208;2023-04-24T04:51:47;0.70;;;0.60;;
4409;SDS011;2218;51.408;7.208;2023-04-24T04:54:14;0.60;;;0.50;;
4409;SDS011;2218;51.408;7.208;2023-04-24T04:56:41;0.70;;;0.60;;
4409;SDS011;2218;51.408;7.208;2023-04-24T04:59:10;0.70;;;0.50;;
4409;SDS011;2218;51.408;7.208;2023-04-24T05:01:38;0.60;;;0.50;;
4409;SDS011;2218;51.408;7.208;2023-04-24T05:04:07;0.60;;;0.40;;
4409;SDS011;2218;51.408;7.208;2023-04-24T05:06:34;0.70;;;0.53;;
4409;SDS011;2218;51.408;7.208;2023-04-24T05:09:01;0.70;;;0.60;;
4409;SDS011;2218;51.408;7.208;2023-04-24T05:11:35;0.70;;;0.60;;
4409;SDS011;2218;51.408;7.208;2023-04-24T05:14:02;0.70;;;0.50;;
4409;SDS011;2218;51.408;7.208;2023-04-24T05:16:37;0.70;;;0.50;;
4409;SDS011;2218;51.408;7.208;2023-04-24T05:19:06;0.73;;;0.70;;
4409;SDS011;2218;51.408;7.208;2023-04-24T05:21:37;0.70;;;0.57;;
4409;SDS011;2218;51.408;7.208;2023-04-24T05:24:06;0.70;;;0.60;;
4409;SDS011;2218;51.408;7.208;2023-04-24T05:27:00;0.70;;;0.60;;
4409;SDS011;2218;51.408;7.208;2023-04-24T05:29:34;0.63;;;0.50;;
4409;SDS011;2218;51.408;7.208;2023-04-24T05:32:05;0.70;;;0.57;;
4409;SDS011;2218;51.408;7.208;2023-04-24T05:34:33;0.60;;;0.50;;
4409;SDS011;2218;51.408;7.208;2023-04-24T05:37:00;0.70;;;0.60;;
4409;SDS011;2218;51.408;7.208;2023-04-24T05:39:28;0.70;;;0.60;;
4409;SDS011;2218;51.408;7.208;2023-04-24T05:41:55;0.70;;;0.67;;
4409;SDS011;2218;51.408;7.208;2023-04-24T05:44:23;0.63;;;0.53;;
4409;SDS011;2218;51.408;7.208;2023-04-24T05:46:50;0.70;;;0.50;;
4409;SDS011;2218;51.408;7.208;2023-04-24T05:49:19;0.70;;;0.60;;
4409;SDS011;2218;51.408;7.208;2023-04-24T05:51:46;0.80;;;0.50;;
4409;SDS011;2218;51.408;7.208;2023-04-24T05:54:14;0.70;;;0.60;;
4409;SDS011;2218;51.408;7.208;2023-04-24T05:56:41;0.70;;;0.50;;
4409;SDS011;2218;51.408;7.208;2023-04-24T05:59:12;0.70;;;0.60;;
4409;SDS011;2218;51.408;7.208;2023-04-24T06:01:39;0.70;;;0.50;;
4409;SDS011;2218;51.408;7.208;2023-04-24T06:04:13;0.70;;;0.50;;
4409;SDS011;2218;51.408;7.208;2023-04-24T06:06:42;0.70;;;0.60;;
4409;SDS011;2218;51.408;7.208;2023-04-24T06:09:09;0.60;;;0.50;;
4409;SDS011;2218;51.408;7.208;2023-04-24T06:11:37;0.80;;;0.60;;
4409;SDS011;2218;51.408;7.208;2023-04-24T06:14:06;0.70;;;0.60;;
4409;SDS011;2218;51.408;7.208;2023-04-24T06:16:36;0.60;;;0.50;;
4409;SDS011;2218;51.408;7.208;2023-04-24T06:19:11;0.70;;;0.60;;
4409;SDS011;2218;51.408;7.208;2023-04-24T06:21:38;0.80;;;0.50;;
4409;SDS011;2218;51.408;7.208;2023-04-24T06:24:06;0.60;;;0.50;;
4409;SDS011;2218;51.408;7.208;2023-04-24T06:26:33;0.70;;;0.57;;
4409;SDS011;2218;51.408;7.208;2023-04-24T06:29:00;0.67;;;0.60;;
4409;SDS011;2218;51.408;7.208;2023-04-24T06:31:27;0.60;;;0.50;;
4409;SDS011;2218;51.408;7.208;2023-04-24T06:33:54;0.80;;;0.63;;
4409;SDS011;2218;51.408;7.208;2023-04-24T06:36:21;0.80;;;0.67;;
4409;SDS011;2218;51.408;7.208;2023-04-24T06:38:48;0.80;;;0.60;;
4409;SDS011;2218;51.408;7.208;2023-04-24T06:41:16;0.70;;;0.50;;
4409;SDS011;2218;51.408;7.208;2023-04-24T06:43:43;0.70;;;0.70;;
4409;SDS011;2218;51.408;7.208;2023-04-24T06:46:10;0.80;;;0.60;;
4409;SDS011;2218;51.408;7.208;2023-04-24T06:48:37;0.70;;;0.60;;
4409;SDS011;2218;51.408;7.208;2023-04-24T06:51:05;2.50;;;0.60;;
4409;SDS011;2218;51.408;7.208;2023-04-24T06:53:32;0.70;;;0.50;;
4409;SDS011;2218;51.408;7.208;2023-04-24T06:55:59;0.70;;;0.60;;
4409;SDS011;2218;51.408;7.208;2023-04-24T06:58:27;0.90;;;0.60;;
4409;SDS011;2218;51.408;7.208;2023-04-24T07:00:56;0.80;;;0.80;;
4409;SDS011;2218;51.408;7.208;2023-04-24T07:03:23;1.13;;;0.70;;
4409;SDS011;2218;51.408;7.208;2023-04-24T07:05:50;1.00;;;0.60;;
4409;SDS011;2218;51.408;7.208;2023-04-24T07:08:18;0.70;;;0.60;;
4409;SDS011;2218;51.408;7.208;2023-04-24T07:10:46;1.20;;;0.70;;
4409;SDS011;2218;51.408;7.208;2023-04-24T07:13:13;1.37;;;0.57;;
4409;SDS011;2218;51.408;7.208;2023-04-24T07:15:41;0.70;;;0.50;;
4409;SDS011;2218;51.408;7.208;2023-04-24T07:18:08;0.70;;;0.60;;
4409;SDS011;2218;51.408;7.208;2023-04-24T07:20:35;0.73;;;0.60;;
4409;SDS011;2218;51.408;7.208;2023-04-24T07:23:02;0.70;;;0.53;;
4409;SDS011;2218;51.408;7.208;2023-04-24T07:25:29;0.70;;;0.70;;
4409;SDS011;2218;51.408;7.208;2023-04-24T07:27:57;0.70;;;0.60;;
4409;SDS011;2218;51.408;7.208;2023-04-24T07:30:24;0.70;;;0.60;;
4409;SDS011;2218;51.408;7.208;2023-04-24T07:32:55;1.03;;;0.70;;
4409;SDS011;2218;51.408;7.208;2023-04-24T07:35:22;0.70;;;0.50;;
4409;SDS011;2218;51.408;7.208;2023-04-24T07:37:50;0.80;;;0.70;;
4409;SDS011;2218;51.408;7.208;2023-04-24T07:40:17;0.70;;;0.60;;
4409;SDS011;2218;51.408;7.208;2023-04-24T07:42:46;0.70;;;0.50;;
4409;SDS011;2218;51.408;7.208;2023-04-24T07:45:14;0.70;;;0.60;;
4409;SDS011;2218;51.408;7.208;2023-04-24T07:47:41;0.60;;;0.50;;
4409;SDS011;2218;51.408;7.208;2023-04-24T07:50:11;0.70;;;0.60;;
4409;SDS011;2218;51.408;7.208;2023-04-24T07:52:39;0.70;;;0.70;;
4409;SDS011;2218;51.408;7.208;2023-04-24T07:55:06;0.70;;;0.50;;
4409;SDS011;2218;51.408;7.208;2023-04-24T07:57:33;0.70;;;0.57;;
4409;SDS011;2218;51.408;7.208;2023-04-24T08:00:00;1.93;;;0.60;;
4409;SDS011;2218;51.408;7.208;2023-04-24T08:02:36;2.60;;;0.67;;
4409;SDS011;2218;51.408;7.208;2023-04-24T08:05:03;0.60;;;0.50;;
4409;SDS011;2218;51.408;7.208;2023-04-24T08:07:33;0.83;;;0.60;;
4409;SDS011;2218;51.408;7.208;2023-04-24T08:10:01;0.70;;;0.50;;
4409;SDS011;2218;51.408;7.208;2023-04-24T08:12:28;1.27;;;0.53;;
4409;SDS011;2218;51.408;7.208;2023-04-24T08:14:55;0.70;;;0.50;;
4409;SDS011;2218;51.408;7.208;2023-04-24T08:17:23;0.63;;;0.47;;
4409;SDS011;2218;51.408;7.208;2023-04-24T08:19:50;0.60;;;0.47;;
4409;SDS011;2218;51.408;7.208;2023-04-24T08:22:18;1.07;;;0.60;;
4409;SDS011;2218;51.408;7.208;2023-04-24T08:24:46;0.80;;;0.67;;
4409;SDS011;2218;51.408;7.208;2023-04-24T08:27:14;0.80;;;0.60;;
4409;SDS011;2218;51.408;7.208;2023-04-24T08:29:41;1.37;;;0.50;;
4409;SDS011;2218;51.408;7.208;2023-04-24T08:32:08;0.80;;;0.50;;
4409;SDS011;2218;51.408;7.208;2023-04-24T08:34:35;0.60;;;0.50;;
4409;SDS011;2218;51.408;7.208;2023-04-24T08:37:02;0.80;;;0.50;;
4409;SDS011;2218;51.408;7.208;2023-04-24T08:39:29;0.60;;;0.50;;
4409;SDS011;2218;51.408;7.208;2023-04-24T08:41:57;0.70;;;0.60;;
4409;SDS011;2218;51.408;7.208;2023-04-24T08:44:30;0.70;;;0.50;;
4409;SDS011;2218;51.408;7.208;2023-04-24T08:46:58;0.70;;;0.50;;
4409;SDS011;2218;51.408;7.208;2023-04-24T08:49:26;5.00;;;0.57;;
4409;SDS011;2218;51.408;7.208;2023-04-24T08:51:55;0.90;;;0.60;;
4409;SDS011;2218;51.408;7.208;2023-04-24T08:54:24;0.97;;;0.60;;
4409;SDS011;2218;51.408;7.208;2023-04-24T08:56:53;0.70;;;0.60;;
4409;SDS011;2218;51.408;7.208;2023-04-24T08:59:26;1.53;;;0.60;;
4409;SDS011;2218;51.408;7.208;2023-04-24T09:01:55;1.30;;;0.50;;
4409;SDS011;2218;51.408;7.208;2023-04-24T09:04:23;1.43;;;0.67;;
4409;SDS011;2218;51.408;7.208;2023-04-24T09:06:51;0.70;;;0.57;;
4409;SDS011;2218;51.408;7.208;2023-04-24T09:09:23;1.73;;;0.60;;
4409;SDS011;2218;51.408;7.208;2023-04-24T09:11:51;0.70;;;0.50;;
4409;SDS011;2218;51.408;7.208;2023-04-24T09:14:21;0.70;;;0.40;;
4409;SDS011;2218;51.408;7.208;2023-04-24T09:16:50;3.00;;;0.60;;
4409;SDS011;2218;51.408;7.208;2023-04-24T09:19:17;1.00;;;0.60;;
4409;SDS011;2218;51.408;7.208;2023-04-24T09:21:45;7.50;;;0.97;;
4409;SDS011;2218;51.408;7.208;2023-04-24T09:24:15;2.10;;;0.70;;
4409;SDS011;2218;51.408;7.208;2023-04-24T09:26:45;2.67;;;0.73;;
4409;SDS011;2218;51.408;7.208;2023-04-24T09:29:16;1.77;;;1.07;;
4409;SDS011;2218;51.408;7.208;2023-04-24T09:31:45;1.00;;;0.80;;
4409;SDS011;2218;51.408;7.208;2023-04-24T09:34:12;1.10;;;0.90;;
4409;SDS011;2218;51.408;7.208;2023-04-24T09:36:40;1.10;;;0.60;;
4409;SDS011;2218;51.408;7.208;2023-04-24T09:39:09;4.50;;;0.80;;
4409;SDS011;2218;51.408;7.208;2023-04-24T09:41:43;2.20;;;0.73;;
4409;SDS011;2218;51.408;7.208;2023-04-24T09:44:12;1.13;;;0.70;;
4409;SDS011;2218;51.408;7.208;2023-04-24T09:46:42;1.90;;;0.63;;
4409;SDS011;2218;51.408;7.208;2023-04-24T09:49:13;3.80;;;1.23;;
4409;SDS011;2218;51.408;7.208;2023-04-24T09:51:42;2.40;;;0.60;;
4409;SDS011;2218;51.408;7.208;2023-04-24T09:54:13;0.90;;;0.80;;
4409;SDS011;2218;51.408;7.208;2023-04-24T09:56:42;2.63;;;0.70;;
4409;SDS011;2218;51.408;7.208;2023-04-24T09:59:11;3.70;;;1.00;;
4409;SDS011;2218;51.408;7.208;2023-04-24T10:01:39;1.10;;;0.60;;
4409;SDS011;2218;51.408;7.208;2023-04-24T10:04:17;2.67;;;0.70;;
4409;SDS011;2218;51.408;7.208;2023-04-24T10:06:46;1.20;;;0.70;;
4409;SDS011;2218;51.408;7.208;2023-04-24T10:09:15;1.43;;;0.60;;
4409;SDS011;2218;51.408;7.208;2023-04-24T10:11:44;2.37;;;0.60;;
4409;SDS011;2218;51.408;7.208;2023-04-24T10:14:14;0.90;;;0.80;;
4409;SDS011;2218;51.408;7.208;2023-04-24T10:16:44;0.73;;;0.70;;
4409;SDS011;2218;51.408;7.208;2023-04-24T10:19:12;0.70;;;0.50;;
4409;SDS011;2218;51.408;7.208;2023-04-24T10:21:42;0.70;;;0.50;;
4409;SDS011;2218;51.408;7.208;2023-04-24T10:24:11;0.70;;;0.50;;
4409;SDS011;2218;51.408;7.208;2023-04-24T10:26:39;0.80;;;0.60;;
4409;SDS011;2218;51.408;7.208;2023-04-24T10:29:08;5.97;;;0.60;;
4409;SDS011;2218;51.408;7.208;2023-04-24T10:31:37;0.70;;;0.60;;
4409;SDS011;2218;51.408;7.208;2023-04-24T10:34:05;0.80;;;0.60;;
4409;SDS011;2218;51.408;7.208;2023-04-24T10:36:33;1.03;;;0.67;;
4409;SDS011;2218;51.408;7.208;2023-04-24T10:39:05;0.70;;;0.50;;
4409;SDS011;2218;51.408;7.208;2023-04-24T10:41:37;0.70;;;0.50;;
4409;SDS011;2218;51.408;7.208;2023-04-24T10:44:05;0.70;;;0.60;;
4409;SDS011;2218;51.408;7.208;2023-04-24T10:46:33;0.70;;;0.50;;
4409;SDS011;2218;51.408;7.208;2023-04-24T10:49:03;0.70;;;0.53;;
4409;SDS011;2218;51.408;7.208;2023-04-24T10:51:44;1.43;;;0.50;;
4409;SDS011;2218;51.408;7.208;2023-04-24T10:54:26;0.70;;;0.57;;
4409;SDS011;2218;51.408;7.208;2023-04-24T11:00:09;0.70;;;0.60;;
4409;SDS011;2218;51.408;7.208;2023-04-24T11:02:45;0.77;;;0.50;;
4409;SDS011;2218;51.408;7.208;2023-04-24T11:05:15;2.50;;;0.50;;
4409;SDS011;2218;51.408;7.208;2023-04-24T11:10:44;4.97;;;0.60;;
4409;SDS011;2218;51.408;7.208;2023-04-24T11:13:14;0.80;;;0.60;;
4409;SDS011;2218;51.408;7.208;2023-04-24T11:15:42;0.70;;;0.50;;
4409;SDS011;2218;51.408;7.208;2023-04-24T11:18:12;0.70;;;0.60;;
4409;SDS011;2218;51.408;7.208;2023-04-24T11:20:41;1.47;;;0.60;;
4409;SDS011;2218;51.408;7.208;2023-04-24T11:23:09;0.70;;;0.60;;
4409;SDS011;2218;51.408;7.208;2023-04-24T11:25:40;2.27;;;0.60;;
4409;SDS011;2218;51.408;7.208;2023-04-24T11:28:09;0.70;;;0.60;;
4409;SDS011;2218;51.408;7.208;2023-04-24T11:30:42;0.80;;;0.70;;
4409;SDS011;2218;51.408;7.208;2023-04-24T11:33:09;0.73;;;0.60;;
4409;SDS011;2218;51.408;7.208;2023-04-24T11:35:39;5.60;;;0.70;;
4409;SDS011;2218;51.408;7.208;2023-04-24T11:38:06;0.80;;;0.63;;
4409;SDS011;2218;51.408;7.208;2023-04-24T11:40:34;0.70;;;0.50;;
4409;SDS011;2218;51.408;7.208;2023-04-24T11:43:01;0.70;;;0.60;;
4409;SDS011;2218;51.408;7.208;2023-04-24T11:45:32;0.70;;;0.50;;
4409;SDS011;2218;51.408;7.208;2023-04-24T11:47:59;1.30;;;0.70;;
4409;SDS011;2218;51.408;7.208;2023-04-24T11:50:28;1.17;;;0.70;;
4409;SDS011;2218;51.408;7.208;2023-04-24T11:52:55;0.90;;;0.73;;
4409;SDS011;2218;51.408;7.208;2023-04-24T11:55:25;1.37;;;0.60;;
4409;SDS011;2218;51.408;7.208;2023-04-24T11:57:54;0.80;;;0.63;;
4409;SDS011;2218;51.408;7.208;2023-04-24T12:00:24;5.13;;;1.43;;
4409;SDS011;2218;51.408;7.208;2023-04-24T12:03:04;4.30;;;0.80;;
4409;SDS011;2218;51.408;7.208;2023-04-24T12:05:32;1.03;;;0.93;;
4409;SDS011;2218;51.408;7.208;2023-04-24T12:08:00;2.33;;;1.00;;
4409;SDS011;2218;51.408;7.208;2023-04-24T12:10:28;2.40;;;0.90;;
4409;SDS011;2218;51.408;7.208;2023-04-24T12:12:58;1.00;;;0.90;;
4409;SDS011;2218;51.408;7.208;2023-04-24T12:15:26;2.20;;;0.93;;
4409;SDS011;2218;51.408;7.208;2023-04-24T12:17:54;1.10;;;0.90;;
4409;SDS011;2218;51.408;7.208;2023-04-24T12:20:26;1.37;;;0.90;;
4409;SDS011;2218;51.408;7.208;2023-04-24T12:22:55;3.27;;;0.80;;
4409;SDS011;2218;51.408;7.208;2023-04-24T12:25:25;1.73;;;0.70;;
4409;SDS011;2218;51.408;7.208;2023-04-24T12:27:54;0.80;;;0.63;;
4409;SDS011;2218;51.408;7.208;2023-04-24T12:30:38;2.10;;;0.70;;
4409;SDS011;2218;51.408;7.208;2023-04-24T12:33:09;1.20;;;0.70;;
4409;SDS011;2218;51.408;7.208;2023-04-24T12:35:39;1.10;;;0.70;;
4409;SDS011;2218;51.408;7.208;2023-04-24T12:38:09;2.07;;;0.70;;
4409;SDS011;2218;51.408;7.208;2023-04-24T12:40:39;1.53;;;0.83;;
4409;SDS011;2218;51.408;7.208;2023-04-24T12:43:12;1.37;;;0.63;;
4409;SDS011;2218;51.408;7.208;2023-04-24T12:45:41;1.63;;;0.80;;
4409;SDS011;2218;51.408;7.208;2023-04-24T12:48:08;1.67;;;0.80;;
4409;SDS011;2218;51.408;7.208;2023-04-24T12:50:35;2.80;;;0.63;;
4409;SDS011;2218;51.408;7.208;2023-04-24T12:53:04;0.90;;;0.63;;
4409;SDS011;2218;51.408;7.208;2023-04-24T12:55:31;2.60;;;0.60;;
4409;SDS011;2218;51.408;7.208;2023-04-24T12:57:58;1.60;;;0.90;;
4409;SDS011;2218;51.408;7.208;2023-04-24T13:00:26;0.90;;;0.80;;
4409;SDS011;2218;51.408;7.208;2023-04-24T13:02:53;1.10;;;0.60;;
4409;SDS011;2218;51.408;7.208;2023-04-24T13:05:21;0.73;;;0.60;;
4409;SDS011;2218;51.408;7.208;2023-04-24T13:07:49;0.80;;;0.50;;
4409;SDS011;2218;51.408;7.208;2023-04-24T13:10:16;0.93;;;0.70;;
4409;SDS011;2218;51.408;7.208;2023-04-24T13:12:44;0.80;;;0.67;;
4409;SDS011;2218;51.408;7.208;2023-04-24T13:15:11;0.80;;;0.60;;
4409;SDS011;2218;51.408;7.208;2023-04-24T13:17:38;1.00;;;0.70;;
4409;SDS011;2218;51.408;7.208;2023-04-24T13:20:06;1.43;;;0.60;;
4409;SDS011;2218;51.408;7.208;2023-04-24T13:22:34;1.07;;;0.70;;
4409;SDS011;2218;51.408;7.208;2023-04-24T13:25:04;0.80;;;0.70;;
4409;SDS011;2218;51.408;7.208;2023-04-24T13:27:32;1.30;;;0.50;;
4409;SDS011;2218;51.408;7.208;2023-04-24T13:29:59;1.07;;;0.70;;
4409;SDS011;2218;51.408;7.208;2023-04-24T13:32:26;5.10;;;0.70;;
4409;SDS011;2218;51.408;7.208;2023-04-24T13:34:53;0.70;;;0.50;;
4409;SDS011;2218;51.408;7.208;2023-04-24T13:37:20;0.83;;;0.57;;
4409;SDS011;2218;51.408;7.208;2023-04-24T13:39:47;0.80;;;0.60;;
4409;SDS011;2218;51.408;7.208;2023-04-24T13:42:16;0.80;;;0.73;;
4409;SDS011;2218;51.408;7.208;2023-04-24T13:44:43;0.77;;;0.50;;
4409;SDS011;2218;51.408;7.208;2023-04-24T13:47:10;1.73;;;0.80;;
4409;SDS011;2218;51.408;7.208;2023-04-24T13:49:37;2.97;;;0.57;;
4409;SDS011;2218;51.408;7.208;2023-04-24T13:52:04;0.70;;;0.60;;
4409;SDS011;2218;51.408;7.208;2023-04-24T13:54:32;0.70;;;0.50;;
4409;SDS011;2218;51.408;7.208;2023-04-24T13:56:59;0.80;;;0.60;;
4409;SDS011;2218;51.408;7.208;2023-04-24T13:59:29;0.70;;;0.60;;
4409;SDS011;2218;51.408;7.208;2023-04-24T14:01:56;5.20;;;0.80;;
4409;SDS011;2218;51.408;7.208;2023-04-24T14:04:23;1.20;;;0.63;;
4409;SDS011;2218;51.408;7.208;2023-04-24T14:06:50;0.70;;;0.50;;
4409;SDS011;2218;51.408;7.208;2023-04-24T14:09:17;0.80;;;0.60;;
4409;SDS011;2218;51.408;7.208;2023-04-24T14:11:44;1.53;;;0.60;;
4409;SDS011;2218;51.408;7.208;2023-04-24T14:14:11;0.80;;;0.60;;
4409;SDS011;2218;51.408;7.208;2023-04-24T14:16:39;1.00;;;0.80;;
4409;SDS011;2218;51.408;7.208;2023-04-24T14:19:06;0.80;;;0.60;;
4409;SDS011;2218;51.408;7.208;2023-04-24T14:21:33;2.00;;;0.50;;
4409;SDS011;2218;51.408;7.208;2023-04-24T14:24:00;0.70;;;0.60;;
4409;SDS011;2218;51.408;7.208;2023-04-24T14:26:27;0.70;;;0.50;;
4409;SDS011;2218;51.408;7.208;2023-04-24T14:28:54;5.63;;;0.67;;
4409;SDS011;2218;51.408;7.208;2023-04-24T14:31:23;1.17;;;0.50;;
4409;SDS011;2218;51.408;7.208;2023-04-24T14:33:52;1.07;;;0.60;;
4409;SDS011;2218;51.408;7.208;2023-04-24T14:36:19;0.70;;;0.50;;
4409;SDS011;2218;51.408;7.208;2023-04-24T14:38:46;0.70;;;0.50;;
4409;SDS011;2218;51.408;7.208;2023-04-24T14:41:13;0.77;;;0.53;;
4409;SDS011;2218;51.408;7.208;2023-04-24T14:43:40;0.90;;;0.60;;
4409;SDS011;2218;51.408;7.208;2023-04-24T14:46:07;9.00;;;0.60;;
4409;SDS011;2218;51.408;7.208;2023-04-24T14:48:34;6.07;;;0.60;;
4409;SDS011;2218;51.408;7.208;2023-04-24T14:51:02;7.07;;;0.60;;
4409;SDS011;2218;51.408;7.208;2023-04-24T14:53:29;5.87;;;0.63;;
4409;SDS011;2218;51.408;7.208;2023-04-24T14:55:56;0.70;;;0.60;;
4409;SDS011;2218;51.408;7.208;2023-04-24T14:58:23;2.00;;;0.50;;
4409;SDS011;2218;51.408;7.208;2023-04-24T15:03:19;1.90;;;0.70;;
4409;SDS011;2218;51.408;7.208;2023-04-24T15:05:46;1.80;;;0.70;;
4409;SDS011;2218;51.408;7.208;2023-04-24T15:08:15;1.20;;;0.73;;
4409;SDS011;2218;51.408;7.208;2023-04-24T15:10:41;0.70;;;0.50;;
4409;SDS011;2218;51.408;7.208;2023-04-24T15:13:08;1.00;;;0.60;;
4409;SDS011;2218;51.408;7.208;2023-04-24T15:15:35;0.67;;;0.53;;
4409;SDS011;2218;51.408;7.208;2023-04-24T15:18:03;0.63;;;0.43;;
4409;SDS011;2218;51.408;7.208;2023-04-24T15:20:30;1.40;;;0.60;;
4409;SDS011;2218;51.408;7.208;2023-04-24T15:22:58;0.90;;;0.50;;
4409;SDS011;2218;51.408;7.208;2023-04-24T15:25:26;0.70;;;0.50;;
4409;SDS011;2218;51.408;7.208;2023-04-24T15:27:53;0.70;;;0.50;;
4409;SDS011;2218;51.408;7.208;2023-04-24T15:30:20;0.60;;;0.50;;
4409;SDS011;2218;51.408;7.208;2023-04-24T15:32:48;5.33;;;0.57;;